createdAt,value
2019-06-20T00:02:18.796Z,17.50
2019-06-20T00:04:45.683Z,17.50
2019-06-20T00:07:12.471Z,17.50
2019-06-20T00:09:39.438Z,17.50
2019-06-20T00:12:06.374Z,17.50
2019-06-20T00:14:33.169Z,17.50
2019-06-20T00:17:00.219Z,17.50
2019-06-20T00:19:27.154Z,17.40
2019-06-20T00:21:54.059Z,17.40
2019-06-20T00:24:20.922Z,17.30
2019-06-20T00:26:47.702Z,17.20
2019-06-20T00:29:14.591Z,17.10
2019-06-20T00:31:41.499Z,17.10
2019-06-20T00:34:08.414Z,17.00
2019-06-20T00:36:35.368Z,17.00
2019-06-20T00:39:02.442Z,17.00
2019-06-20T00:41:29.265Z,17.00
2019-06-20T00:43:56.132Z,17.00
2019-06-20T00:46:22.925Z,17.10
2019-06-20T00:48:49.718Z,17.00
2019-06-20T00:51:16.757Z,17.10
2019-06-20T00:53:43.561Z,17.20
2019-06-20T00:56:10.550Z,17.20
2019-06-20T00:58:37.610Z,17.30
2019-06-20T01:01:05.016Z,17.30
2019-06-20T01:03:31.815Z,17.30
2019-06-20T01:06:18.293Z,17.30
2019-06-20T01:08:45.284Z,17.30
2019-06-20T01:11:12.176Z,17.30
2019-06-20T01:13:39.090Z,17.20
2019-06-20T01:16:06.010Z,17.20
2019-06-20T01:18:33.033Z,17.20
2019-06-20T01:21:00.113Z,17.10
2019-06-20T01:23:27.021Z,17.30
2019-06-20T01:25:53.922Z,17.50
2019-06-20T01:28:20.754Z,17.60
2019-06-20T01:30:47.911Z,17.50
2019-06-20T01:33:14.918Z,17.30
2019-06-20T01:35:41.826Z,17.20
2019-06-20T01:38:08.763Z,17.40
2019-06-20T01:40:35.559Z,17.40
2019-06-20T01:43:02.634Z,17.30
2019-06-20T01:45:29.580Z,17.30
2019-06-20T01:47:56.427Z,17.30
2019-06-20T01:50:23.423Z,17.30
2019-06-20T01:52:50.265Z,17.30
2019-06-20T01:55:17.267Z,17.30
2019-06-20T01:57:44.171Z,17.40
2019-06-20T02:00:13.379Z,17.40
2019-06-20T02:02:40.404Z,17.30
2019-06-20T02:05:08.347Z,17.30
2019-06-20T02:07:35.372Z,17.30
2019-06-20T02:10:02.924Z,17.40
2019-06-20T02:12:29.782Z,17.40
2019-06-20T02:14:56.856Z,17.40
2019-06-20T02:17:23.853Z,17.40
2019-06-20T02:19:50.662Z,17.30
2019-06-20T02:22:17.686Z,17.30
2019-06-20T02:24:44.594Z,17.30
2019-06-20T02:27:11.638Z,17.30
2019-06-20T02:29:38.646Z,17.20
2019-06-20T02:32:05.553Z,17.20
2019-06-20T02:34:32.489Z,17.10
2019-06-20T02:36:59.391Z,17.10
2019-06-20T02:39:26.285Z,17.10
2019-06-20T02:41:53.223Z,17.00
2019-06-20T02:44:29.947Z,17.00
2019-06-20T02:46:48.742Z,17.00
2019-06-20T02:49:15.673Z,16.80
2019-06-20T02:51:42.888Z,16.70
2019-06-20T02:54:09.695Z,16.70
2019-06-20T02:56:36.655Z,16.80
2019-06-20T02:59:03.677Z,16.80
2019-06-20T03:01:30.663Z,16.70
2019-06-20T03:03:57.609Z,16.70
2019-06-20T03:06:24.625Z,16.80
2019-06-20T03:08:51.458Z,16.70
2019-06-20T03:11:18.353Z,16.70
2019-06-20T03:13:45.301Z,16.60
2019-06-20T03:16:12.111Z,16.70
2019-06-20T03:18:38.925Z,16.70
2019-06-20T03:21:05.767Z,16.70
2019-06-20T03:23:32.586Z,16.80
2019-06-20T03:25:59.497Z,16.80
2019-06-20T03:28:26.442Z,16.80
2019-06-20T03:30:53.339Z,16.60
2019-06-20T03:33:20.310Z,16.40
2019-06-20T03:35:47.335Z,16.30
2019-06-20T03:38:14.247Z,16.30
2019-06-20T03:40:41.180Z,16.40
2019-06-20T03:43:08.068Z,16.70
2019-06-20T03:45:34.986Z,16.90
2019-06-20T03:48:02.115Z,17.10
2019-06-20T03:50:29.011Z,17.10
2019-06-20T03:53:01.889Z,17.00
2019-06-20T03:55:32.172Z,17.00
2019-06-20T03:58:00.150Z,16.90
2019-06-20T04:00:33.047Z,17.00
2019-06-20T04:03:00.166Z,17.00
2019-06-20T04:05:27.183Z,17.10
2019-06-20T04:07:54.015Z,17.20
2019-06-20T04:10:20.902Z,17.20
2019-06-20T04:12:47.702Z,17.40
2019-06-20T04:15:19.019Z,18.30
2019-06-20T04:17:43.547Z,18.10
2019-06-20T04:20:10.850Z,18.30
2019-06-20T04:22:37.773Z,19.90
2019-06-20T04:25:04.907Z,20.70
2019-06-20T04:27:31.698Z,21.30
2019-06-20T04:29:58.617Z,21.70
2019-06-20T04:32:25.429Z,22.10
2019-06-20T04:34:52.341Z,22.00
2019-06-20T04:37:19.290Z,21.50
2019-06-20T04:39:46.179Z,20.50
2019-06-20T04:42:13.024Z,20.00
2019-06-20T04:44:39.822Z,19.80
2019-06-20T04:47:09.566Z,19.60
2019-06-20T04:49:36.473Z,19.40
2019-06-20T04:52:03.495Z,19.40
2019-06-20T04:54:30.334Z,19.40
2019-06-20T04:56:57.159Z,19.60
2019-06-20T04:59:23.974Z,19.90
2019-06-20T05:01:50.822Z,20.10
2019-06-20T05:04:17.742Z,20.10
2019-06-20T05:06:48.017Z,20.00
2019-06-20T05:09:14.905Z,19.80
2019-06-20T05:11:41.831Z,19.70
2019-06-20T05:14:08.818Z,19.50
2019-06-20T05:16:35.680Z,19.40
2019-06-20T05:19:02.581Z,19.30
2019-06-20T05:21:29.525Z,19.20
2019-06-20T05:23:56.319Z,19.20
2019-06-20T05:26:23.143Z,19.20
2019-06-20T05:28:50.094Z,19.30
2019-06-20T05:31:16.902Z,19.30
2019-06-20T05:33:43.926Z,19.40
2019-06-20T05:36:10.892Z,19.50
2019-06-20T05:38:37.786Z,19.60
2019-06-20T05:41:04.714Z,19.60
2019-06-20T05:43:31.572Z,19.60
2019-06-20T05:46:08.755Z,19.60
2019-06-20T05:48:27.497Z,19.60
2019-06-20T05:50:54.622Z,19.70
2019-06-20T05:53:21.644Z,19.80
2019-06-20T05:55:48.546Z,19.80
2019-06-20T05:58:15.556Z,19.90
2019-06-20T06:00:42.496Z,19.80
2019-06-20T06:03:09.316Z,19.70
2019-06-20T06:05:37.194Z,19.60
2019-06-20T06:08:04.334Z,19.50
2019-06-20T06:10:31.164Z,19.50
2019-06-20T06:12:58.247Z,19.50
2019-06-20T06:15:25.195Z,19.50
2019-06-20T06:17:52.112Z,19.50
2019-06-20T06:20:20.016Z,19.40
2019-06-20T06:22:47.191Z,19.40
2019-06-20T06:25:14.491Z,19.40
2019-06-20T06:27:41.577Z,19.50
2019-06-20T06:30:09.351Z,19.70
2019-06-20T06:32:39.972Z,19.80
2019-06-20T06:35:05.291Z,19.90
2019-06-20T06:37:32.405Z,19.90
2019-06-20T06:39:59.214Z,20.00
2019-06-20T06:42:26.051Z,20.00
2019-06-20T06:44:52.850Z,20.00
2019-06-20T06:47:19.665Z,19.90
2019-06-20T06:49:46.638Z,20.10
2019-06-20T06:52:13.463Z,20.10
2019-06-20T06:54:40.273Z,20.20
2019-06-20T06:57:07.080Z,20.30
2019-06-20T06:59:33.984Z,20.60
2019-06-20T07:02:00.892Z,20.70
2019-06-20T07:04:28.000Z,20.80
2019-06-20T07:06:55.092Z,20.70
2019-06-20T07:09:22.102Z,20.70
2019-06-20T07:11:49.030Z,20.70
2019-06-20T07:14:16.017Z,20.70
2019-06-20T07:16:56.536Z,20.50
2019-06-20T07:19:11.911Z,20.50
2019-06-20T07:21:38.981Z,20.40
2019-06-20T07:24:05.930Z,20.40
2019-06-20T07:26:32.993Z,20.40
2019-06-20T07:29:00.049Z,20.50
2019-06-20T07:31:27.099Z,20.50
2019-06-20T07:33:54.028Z,20.30
2019-06-20T07:36:21.074Z,20.20
2019-06-20T07:38:47.910Z,20.30
2019-06-20T07:41:14.810Z,20.40
2019-06-20T07:43:41.674Z,20.50
2019-06-20T07:46:08.716Z,20.60
2019-06-20T07:48:35.720Z,20.70
2019-06-20T07:51:02.743Z,21.00
2019-06-20T07:53:29.690Z,21.30
2019-06-20T07:55:56.655Z,21.80
2019-06-20T07:58:23.586Z,22.30
2019-06-20T08:00:50.546Z,22.30
2019-06-20T08:03:17.498Z,22.50
2019-06-20T08:05:44.396Z,22.80
2019-06-20T08:08:11.372Z,23.00
2019-06-20T08:10:38.280Z,23.00
2019-06-20T08:13:05.293Z,23.10
2019-06-20T08:15:32.309Z,23.30
2019-06-20T08:17:59.222Z,23.50
2019-06-20T08:20:26.336Z,23.50
2019-06-20T08:22:53.305Z,23.60
2019-06-20T08:25:20.682Z,23.60
2019-06-20T08:27:51.155Z,23.70
2019-06-20T08:30:26.071Z,23.90
2019-06-20T08:32:53.582Z,23.50
2019-06-20T08:35:22.542Z,23.70
2019-06-20T08:37:49.895Z,23.80
2019-06-20T08:40:17.127Z,23.70
2019-06-20T08:42:44.235Z,23.70
2019-06-20T08:45:11.446Z,24.00
2019-06-20T08:47:38.426Z,24.40
2019-06-20T08:50:06.162Z,24.90
2019-06-20T08:52:33.166Z,25.20
2019-06-20T08:55:01.093Z,25.20
2019-06-20T08:57:28.138Z,25.00
2019-06-20T08:59:56.003Z,24.60
2019-06-20T09:02:24.030Z,24.60
2019-06-20T09:04:51.068Z,24.30
2019-06-20T09:07:17.972Z,24.10
2019-06-20T09:09:44.929Z,24.00
2019-06-20T09:12:11.922Z,23.60
2019-06-20T09:14:38.710Z,23.30
2019-06-20T09:17:05.669Z,23.10
2019-06-20T09:19:32.473Z,23.40
2019-06-20T09:22:00.482Z,23.90
2019-06-20T09:24:27.773Z,24.50
2019-06-20T09:26:55.442Z,25.10
2019-06-20T09:29:22.407Z,25.30
2019-06-20T09:31:49.221Z,25.40
2019-06-20T09:34:17.050Z,25.60
2019-06-20T09:36:43.846Z,25.50
2019-06-20T09:39:10.743Z,25.40
2019-06-20T09:41:37.588Z,25.30
2019-06-20T09:44:04.581Z,25.20
2019-06-20T09:46:31.470Z,25.20
2019-06-20T09:48:58.771Z,25.40
2019-06-20T09:51:25.655Z,25.40
2019-06-20T09:53:53.855Z,25.60
2019-06-20T09:56:21.167Z,25.30
2019-06-20T09:58:49.300Z,24.70
2019-06-20T10:01:16.491Z,24.30
2019-06-20T10:03:43.386Z,24.00
2019-06-20T10:06:13.961Z,23.70
2019-06-20T10:08:39.425Z,23.70
2019-06-20T10:11:06.526Z,24.40
2019-06-20T10:13:33.441Z,25.20
2019-06-20T10:16:00.410Z,25.20
2019-06-20T10:18:27.227Z,25.20
2019-06-20T10:20:54.218Z,25.00
2019-06-20T10:23:21.090Z,25.00
2019-06-20T10:25:49.221Z,24.70
2019-06-20T10:28:17.710Z,24.20
2019-06-20T10:30:44.831Z,24.00
2019-06-20T10:33:11.850Z,24.20
2019-06-20T10:35:38.739Z,24.50
2019-06-20T10:38:05.742Z,24.60
2019-06-20T10:40:32.768Z,24.80
2019-06-20T10:42:59.802Z,25.20
2019-06-20T10:45:27.421Z,25.30
2019-06-20T10:47:54.475Z,25.30
2019-06-20T10:50:22.395Z,25.40
2019-06-20T10:52:50.021Z,24.80
2019-06-20T10:55:17.745Z,24.40
2019-06-20T10:57:44.708Z,24.30
2019-06-20T11:00:29.322Z,24.00
2019-06-20T11:02:43.411Z,24.10
2019-06-20T11:05:11.157Z,24.20
2019-06-20T11:07:38.943Z,24.30
2019-06-20T11:10:08.799Z,24.40
2019-06-20T11:12:45.669Z,24.50
2019-06-20T11:15:05.437Z,24.70
2019-06-20T11:17:32.447Z,24.80
2019-06-20T11:19:59.246Z,24.80
2019-06-20T11:22:26.118Z,24.60
2019-06-20T11:24:53.138Z,24.60
2019-06-20T11:27:20.023Z,24.50
2019-06-20T11:29:46.854Z,24.60
2019-06-20T11:32:13.761Z,24.70
2019-06-20T11:34:40.567Z,24.50
2019-06-20T11:37:07.598Z,24.50
2019-06-20T11:39:35.635Z,24.60
2019-06-20T11:42:02.921Z,24.50
2019-06-20T11:44:29.877Z,24.70
2019-06-20T11:46:56.791Z,24.90
2019-06-20T11:49:23.688Z,25.00
2019-06-20T11:51:50.522Z,24.80
2019-06-20T11:54:17.669Z,25.10
2019-06-20T11:56:44.666Z,25.20
2019-06-20T11:59:11.554Z,25.00
2019-06-20T12:01:40.068Z,25.30
2019-06-20T12:04:09.442Z,25.10
2019-06-20T12:06:36.078Z,24.40
2019-06-20T12:09:05.091Z,24.70
2019-06-20T12:11:31.933Z,25.00
2019-06-20T12:13:58.978Z,24.80
2019-06-20T12:16:25.783Z,24.80
2019-06-20T12:18:52.685Z,24.70
2019-06-20T12:21:19.707Z,25.20
2019-06-20T12:23:46.890Z,25.20
2019-06-20T12:26:13.898Z,25.10
2019-06-20T12:28:40.779Z,25.00
2019-06-20T12:31:19.088Z,24.90
2019-06-20T12:33:38.237Z,25.10
2019-06-20T12:36:05.860Z,25.60
2019-06-20T12:38:32.653Z,25.30
2019-06-20T12:40:59.560Z,25.30
2019-06-20T12:43:26.458Z,25.60
2019-06-20T12:45:53.349Z,25.30
2019-06-20T12:48:20.262Z,25.40
2019-06-20T12:50:47.639Z,25.00
2019-06-20T12:53:14.714Z,24.90
2019-06-20T12:55:42.435Z,25.00
2019-06-20T12:58:09.554Z,25.10
2019-06-20T13:00:37.643Z,25.00
2019-06-20T13:03:06.030Z,25.00
2019-06-20T13:05:32.962Z,25.00
2019-06-20T13:07:59.910Z,24.90
2019-06-20T13:10:26.819Z,24.90
2019-06-20T13:12:53.625Z,24.80
2019-06-20T13:15:20.781Z,24.80
2019-06-20T13:17:49.113Z,24.90
2019-06-20T13:20:17.604Z,24.80
2019-06-20T13:22:44.896Z,25.00
2019-06-20T13:25:12.948Z,25.10
2019-06-20T13:27:40.889Z,24.80
2019-06-20T13:30:08.670Z,24.70
2019-06-20T13:32:35.767Z,24.70
2019-06-20T13:35:02.943Z,24.80
2019-06-20T13:37:29.851Z,24.90
2019-06-20T13:39:56.716Z,24.90
2019-06-20T13:42:23.610Z,24.70
2019-06-20T13:44:50.666Z,24.70
2019-06-20T13:47:17.622Z,24.70
2019-06-20T13:49:45.754Z,24.90
2019-06-20T13:52:12.675Z,25.00
2019-06-20T13:54:39.682Z,24.80
2019-06-20T13:57:07.994Z,24.70
2019-06-20T13:59:34.782Z,24.40
2019-06-20T14:02:06.617Z,24.60
2019-06-20T14:04:30.649Z,24.70
2019-06-20T14:06:57.557Z,24.40
2019-06-20T14:09:24.416Z,24.10
2019-06-20T14:11:51.538Z,24.20
2019-06-20T14:14:18.487Z,24.30
2019-06-20T14:16:45.489Z,24.40
2019-06-20T14:19:12.511Z,24.80
2019-06-20T14:21:39.505Z,24.70
2019-06-20T14:24:06.601Z,24.10
2019-06-20T14:26:33.514Z,23.50
2019-06-20T14:29:00.514Z,23.50
2019-06-20T14:31:27.375Z,23.40
2019-06-20T14:33:55.580Z,23.30
2019-06-20T14:36:22.519Z,23.70
2019-06-20T14:38:49.533Z,24.00
2019-06-20T14:41:16.527Z,23.70
2019-06-20T14:43:44.702Z,23.40
2019-06-20T14:46:12.047Z,23.60
2019-06-20T14:48:38.895Z,23.70
2019-06-20T14:51:06.110Z,23.50
2019-06-20T14:53:32.921Z,23.50
2019-06-20T14:55:59.919Z,23.30
2019-06-20T14:58:26.845Z,23.30
2019-06-20T15:00:54.275Z,23.40
2019-06-20T15:03:24.228Z,23.20
2019-06-20T15:05:52.600Z,23.30
2019-06-20T15:08:23.676Z,23.30
2019-06-20T15:10:51.788Z,23.20
2019-06-20T15:13:18.900Z,23.30
2019-06-20T15:15:46.595Z,23.20
2019-06-20T15:18:14.692Z,23.10
2019-06-20T15:20:41.604Z,22.90
2019-06-20T15:23:08.401Z,23.00
2019-06-20T15:25:35.429Z,22.80
2019-06-20T15:28:02.335Z,22.70
2019-06-20T15:30:29.359Z,22.70
2019-06-20T15:33:07.585Z,22.60
2019-06-20T15:35:25.106Z,22.70
2019-06-20T15:37:53.646Z,22.70
2019-06-20T15:40:20.981Z,22.40
2019-06-20T15:42:49.583Z,21.90
2019-06-20T15:45:17.023Z,21.70
2019-06-20T15:47:44.363Z,21.60
2019-06-20T15:50:11.858Z,21.80
2019-06-20T15:52:40.314Z,22.10
2019-06-20T15:55:08.894Z,22.20
2019-06-20T15:57:35.955Z,22.00
2019-06-20T16:00:10.113Z,21.70
2019-06-20T16:02:37.635Z,21.60
2019-06-20T16:05:08.851Z,21.40
2019-06-20T16:07:36.222Z,21.30
2019-06-20T16:10:04.248Z,21.30
2019-06-20T16:12:31.188Z,21.40
2019-06-20T16:15:00.639Z,21.40
2019-06-20T16:17:28.368Z,21.50
2019-06-20T16:19:55.549Z,21.50
2019-06-20T16:22:23.231Z,21.40
2019-06-20T16:24:50.834Z,21.40
2019-06-20T16:27:17.759Z,21.30
2019-06-20T16:29:46.258Z,21.10
2019-06-20T16:32:22.852Z,21.00
2019-06-20T16:34:50.083Z,21.10
2019-06-20T16:37:16.929Z,21.10
2019-06-20T16:39:46.436Z,21.00
2019-06-20T16:42:19.237Z,21.00
2019-06-20T16:44:46.472Z,20.80
2019-06-20T16:47:13.268Z,20.80
2019-06-20T16:49:40.115Z,20.80
2019-06-20T16:52:10.162Z,20.80
2019-06-20T16:54:37.008Z,20.80
2019-06-20T16:57:04.054Z,20.70
2019-06-20T16:59:33.588Z,20.80
2019-06-20T17:02:04.417Z,20.80
2019-06-20T17:04:31.989Z,20.80
2019-06-20T17:07:02.805Z,20.80
2019-06-20T17:09:36.589Z,20.90
2019-06-20T17:12:05.854Z,20.90
2019-06-20T17:14:35.343Z,20.90
2019-06-20T17:17:07.866Z,20.90
2019-06-20T17:19:35.864Z,20.90
2019-06-20T17:22:03.259Z,21.00
2019-06-20T17:24:30.347Z,21.10
2019-06-20T17:26:57.340Z,21.10
2019-06-20T17:29:24.307Z,21.40
2019-06-20T17:31:51.742Z,21.30
2019-06-20T17:34:18.750Z,21.30
2019-06-20T17:36:45.709Z,21.20
2019-06-20T17:39:15.626Z,21.40
2019-06-20T17:41:54.761Z,21.40
2019-06-20T17:44:14.919Z,21.40
2019-06-20T17:46:48.547Z,21.20
2019-06-20T17:49:15.976Z,21.10
2019-06-20T17:51:44.584Z,21.00
2019-06-20T17:54:11.908Z,21.10
2019-06-20T17:56:39.039Z,21.00
2019-06-20T17:59:13.412Z,21.00
2019-06-20T18:01:40.378Z,21.00
2019-06-20T18:04:13.854Z,20.90
2019-06-20T18:06:54.016Z,20.80
2019-06-20T18:09:21.353Z,20.80
2019-06-20T18:11:50.466Z,20.70
2019-06-20T18:14:17.443Z,20.60
2019-06-20T18:16:44.294Z,20.60
2019-06-20T18:19:12.079Z,20.60
2019-06-20T18:21:39.133Z,20.60
2019-06-20T18:24:08.071Z,20.40
2019-06-20T18:26:34.927Z,20.40
2019-06-20T18:29:01.939Z,20.30
2019-06-20T18:31:31.180Z,20.20
2019-06-20T18:33:58.131Z,20.20
2019-06-20T18:36:25.065Z,20.20
2019-06-20T18:38:51.983Z,20.20
2019-06-20T18:41:18.985Z,20.20
2019-06-20T18:43:45.912Z,20.10
2019-06-20T18:46:12.975Z,20.00
2019-06-20T18:48:39.918Z,19.80
2019-06-20T18:51:06.845Z,19.70
2019-06-20T18:53:33.766Z,19.60
2019-06-20T18:56:00.801Z,19.50
2019-06-20T18:58:27.648Z,19.50
2019-06-20T19:00:54.564Z,19.40
2019-06-20T19:03:21.537Z,19.30
2019-06-20T19:05:48.490Z,19.30
2019-06-20T19:08:15.466Z,19.20
2019-06-20T19:10:42.355Z,19.10
2019-06-20T19:13:09.257Z,19.10
2019-06-20T19:15:36.195Z,19.00
2019-06-20T19:18:03.505Z,19.00
2019-06-20T19:20:30.534Z,18.90
2019-06-20T19:22:57.426Z,18.90
2019-06-20T19:25:26.275Z,18.90
2019-06-20T19:27:53.207Z,18.80
2019-06-20T19:30:26.658Z,18.80
2019-06-20T19:32:53.470Z,18.70
2019-06-20T19:35:20.399Z,18.70
2019-06-20T19:37:47.231Z,18.60
2019-06-20T19:40:15.839Z,18.50
2019-06-20T19:42:42.818Z,18.50
2019-06-20T19:45:11.774Z,18.40
2019-06-20T19:47:39.170Z,18.30
2019-06-20T19:50:06.904Z,18.20
2019-06-20T19:52:34.248Z,18.20
2019-06-20T19:55:01.543Z,18.10
2019-06-20T19:57:28.449Z,18.10
2019-06-20T19:59:55.491Z,18.00
2019-06-20T20:02:22.603Z,18.00
2019-06-20T20:04:49.688Z,18.00
2019-06-20T20:07:16.694Z,18.00
2019-06-20T20:09:43.711Z,18.00
2019-06-20T20:12:10.502Z,17.90
2019-06-20T20:14:37.346Z,17.90
2019-06-20T20:17:04.240Z,17.90
2019-06-20T20:19:31.053Z,17.80
2019-06-20T20:21:57.995Z,17.80
2019-06-20T20:24:24.815Z,17.70
2019-06-20T20:26:51.594Z,17.70
2019-06-20T20:29:18.471Z,17.70
2019-06-20T20:31:45.439Z,17.70
2019-06-20T20:34:12.247Z,17.70
2019-06-20T20:36:39.527Z,17.70
2019-06-20T20:39:06.665Z,17.70
2019-06-20T20:41:33.682Z,17.60
2019-06-20T20:44:00.501Z,17.60
2019-06-20T20:46:27.323Z,17.60
2019-06-20T20:48:54.297Z,17.50
2019-06-20T20:51:22.170Z,17.40
2019-06-20T20:53:49.004Z,17.40
2019-06-20T20:56:15.798Z,17.40
2019-06-20T20:58:42.595Z,17.30
2019-06-20T21:01:19.674Z,17.30
2019-06-20T21:03:46.604Z,17.20
2019-06-20T21:06:13.655Z,17.20
2019-06-20T21:08:40.707Z,17.10
2019-06-20T21:11:07.615Z,17.10
2019-06-20T21:13:34.523Z,17.00
2019-06-20T21:16:01.364Z,17.00
2019-06-20T21:18:28.173Z,17.00
2019-06-20T21:20:54.976Z,17.00
2019-06-20T21:23:21.866Z,17.00
2019-06-20T21:25:48.880Z,17.10
2019-06-20T21:28:15.681Z,17.10
2019-06-20T21:30:42.801Z,17.10
2019-06-20T21:33:09.590Z,17.10
2019-06-20T21:35:36.498Z,17.10
2019-06-20T21:38:03.546Z,17.10
2019-06-20T21:40:30.334Z,17.00
2019-06-20T21:42:57.131Z,17.10
2019-06-20T21:45:24.178Z,17.00
2019-06-20T21:47:51.057Z,16.90
2019-06-20T21:50:18.382Z,16.90
2019-06-20T21:52:45.234Z,16.90
2019-06-20T21:55:12.411Z,16.80
2019-06-20T21:57:39.222Z,16.80
2019-06-20T22:00:12.469Z,16.70
2019-06-20T22:02:39.456Z,16.70
2019-06-20T22:05:07.150Z,16.70
2019-06-20T22:07:34.006Z,16.70
2019-06-20T22:10:01.023Z,16.70
2019-06-20T22:12:27.915Z,16.70
2019-06-20T22:14:54.756Z,16.70
2019-06-20T22:17:21.653Z,16.70
2019-06-20T22:19:48.447Z,16.70
2019-06-20T22:22:15.330Z,16.70
2019-06-20T22:24:42.318Z,16.70
2019-06-20T22:27:09.206Z,16.70
2019-06-20T22:29:36.206Z,16.80
2019-06-20T22:32:03.239Z,16.80
2019-06-20T22:34:30.250Z,16.80
2019-06-20T22:36:57.050Z,16.70
2019-06-20T22:39:23.846Z,16.70
2019-06-20T22:41:50.875Z,16.60
2019-06-20T22:44:17.760Z,16.50
2019-06-20T22:46:44.751Z,16.40
2019-06-20T22:49:11.542Z,16.40
2019-06-20T22:51:38.349Z,16.50
2019-06-20T22:54:05.395Z,16.40
2019-06-20T22:56:32.388Z,16.40
2019-06-20T22:58:59.186Z,16.50
2019-06-20T23:01:26.262Z,16.50
2019-06-20T23:03:53.055Z,16.50
2019-06-20T23:06:19.849Z,16.50
2019-06-20T23:08:46.651Z,16.50
2019-06-20T23:11:13.438Z,16.50
2019-06-20T23:13:40.272Z,16.50
2019-06-20T23:16:07.271Z,16.50
2019-06-20T23:18:34.179Z,16.50
2019-06-20T23:21:04.978Z,16.50
2019-06-20T23:23:29.821Z,16.50
2019-06-20T23:25:58.730Z,16.50
2019-06-20T23:28:25.651Z,16.40
2019-06-20T23:30:52.452Z,16.40
2019-06-20T23:33:19.367Z,16.40
2019-06-20T23:35:46.339Z,16.40
2019-06-20T23:38:13.170Z,16.40
2019-06-20T23:40:40.013Z,16.30
2019-06-20T23:43:07.075Z,16.30
2019-06-20T23:45:34.054Z,16.30
2019-06-20T23:48:00.857Z,16.20
2019-06-20T23:50:27.726Z,16.20
2019-06-20T23:53:02.547Z,16.20
2019-06-20T23:55:29.357Z,16.20
2019-06-20T23:57:56.197Z,16.20
